Time;durP1;ratioP1;P1;durP2;ratioP2;P2;SDS_P1;SDS_P2;PMS_P1;PMS_P2;Temp;Humidity;BMP_temperature;BMP_pressure;BME280_temperature;BME280_humidity;BME280_pressure;Samples;Min_cycle;Max_cycle;Signal;HPM_P1;HPM_P2
2023/03/23 00:02:28;;;;;;;;;;;12.40;99.90;;;;;;5139779;27;19908;-61
2023/03/23 00:04:54;;;;;;;;;;;12.40;99.90;;;;;;5139289;27;19931;-60
2023/03/23 00:07:21;;;;;;;;;;;12.40;99.90;;;;;;5139502;27;19998;-60
2023/03/23 00:09:53;;;;;;;;;;;12.40;99.90;;;;;;5139381;27;19931;-61
2023/03/23 00:12:21;;;;;;;;;;;12.50;99.90;;;;;;5139352;27;19986;-61
2023/03/23 00:14:47;;;;;;;;;;;12.50;99.90;;;;;;5139104;27;19912;-60
2023/03/23 00:17:14;;;;;;;;;;;12.40;99.90;;;;;;5139200;27;20002;-60
2023/03/23 00:19:46;;;;;;;;;;;12.40;99.90;;;;;;5139215;27;19907;-60
2023/03/23 00:22:16;;;;;;;;;;;12.40;99.90;;;;;;5139071;27;19907;-61
2023/03/23 00:24:42;;;;;;;;;;;12.40;99.90;;;;;;5139007;27;19939;-61
2023/03/23 00:27:14;;;;;;;;;;;12.30;99.90;;;;;;5139193;27;19907;-60
2023/03/23 00:29:40;;;;;;;;;;;12.30;99.90;;;;;;5138869;27;20002;-60
2023/03/23 00:32:06;;;;;;;;;;;12.30;99.90;;;;;;5138981;27;19908;-60
2023/03/23 00:34:32;;;;;;;;;;;12.40;99.90;;;;;;5138815;27;20426;-60
2023/03/23 00:36:58;;;;;;;;;;;12.30;99.90;;;;;;5138709;28;19915;-60
2023/03/23 00:39:25;;;;;;;;;;;12.30;99.90;;;;;;5139053;28;19914;-60
2023/03/23 00:41:51;;;;;;;;;;;12.40;99.90;;;;;;5138913;28;19911;-61
2023/03/23 00:44:16;;;;;;;;;;;12.40;99.90;;;;;;5138831;28;19914;-61
2023/03/23 00:46:46;;;;;;;;;;;12.40;99.90;;;;;;5139057;28;19914;-60
2023/03/23 00:49:15;;;;;;;;;;;12.40;99.90;;;;;;5138656;28;20286;-60
2023/03/23 00:51:41;;;;;;;;;;;12.40;99.90;;;;;;5139241;28;19918;-60
2023/03/23 00:54:07;;;;;;;;;;;12.40;99.90;;;;;;5138606;28;19911;-61
2023/03/23 00:56:33;;;;;;;;;;;12.40;99.90;;;;;;5138897;28;19929;-60
2023/03/23 00:58:58;;;;;;;;;;;12.40;99.90;;;;;;5138842;28;20331;-60
2023/03/23 01:01:24;;;;;;;;;;;12.50;99.90;;;;;;5138890;28;19976;-61
2023/03/23 01:03:49;;;;;;;;;;;12.40;99.90;;;;;;5138674;28;19996;-60
2023/03/23 01:06:15;;;;;;;;;;;12.40;99.90;;;;;;5138642;28;19915;-61
2023/03/23 01:08:44;;;;;;;;;;;12.40;99.90;;;;;;5138395;28;19916;-61
2023/03/23 01:11:14;;;;;;;;;;;12.40;99.90;;;;;;5138769;28;19907;-61
2023/03/23 01:13:41;;;;;;;;;;;12.40;99.90;;;;;;5138851;28;20266;-61
2023/03/23 01:16:07;;;;;;;;;;;12.40;99.90;;;;;;5138462;28;19961;-61
2023/03/23 01:18:33;;;;;;;;;;;12.40;99.90;;;;;;5138757;28;20001;-61
2023/03/23 01:21:03;;;;;;;;;;;12.40;99.90;;;;;;5138464;28;19949;-61
2023/03/23 01:23:29;;;;;;;;;;;12.40;99.90;;;;;;5138474;28;19956;-60
2023/03/23 01:25:57;;;;;;;;;;;12.40;99.90;;;;;;5140525;27;19994;-61
2023/03/23 01:28:23;;;;;;;;;;;12.40;99.90;;;;;;5142209;27;19907;-61
2023/03/23 01:30:49;;;;;;;;;;;12.40;99.90;;;;;;5142378;27;20289;-61
2023/03/23 01:33:15;;;;;;;;;;;12.40;99.90;;;;;;5142391;27;19912;-61
2023/03/23 01:35:40;;;;;;;;;;;12.30;99.90;;;;;;5142671;27;20383;-60
2023/03/23 01:38:06;;;;;;;;;;;11.70;99.90;;;;;;5142111;27;20400;-60
2023/03/23 01:40:31;;;;;;;;;;;12.20;99.90;;;;;;5142204;27;19914;-60
2023/03/23 01:42:57;;;;;;;;;;;12.40;99.90;;;;;;5142245;27;20336;-61
2023/03/23 01:45:25;;;;;;;;;;;12.40;99.90;;;;;;5142149;27;19908;-60
2023/03/23 01:48:10;;;;;;;;;;;12.30;99.90;;;;;;5141871;27;20395;-61
2023/03/23 01:50:38;;;;;;;;;;;12.40;99.90;;;;;;5142073;27;19907;-61
2023/03/23 01:53:08;;;;;;;;;;;12.30;99.90;;;;;;5142211;27;19908;-61
2023/03/23 01:55:36;;;;;;;;;;;12.30;99.90;;;;;;5141826;27;20278;-60
2023/03/23 01:58:02;;;;;;;;;;;12.40;99.90;;;;;;5141978;27;19907;-61
2023/03/23 02:00:28;;;;;;;;;;;12.40;99.90;;;;;;5141893;27;19915;-60
2023/03/23 02:02:54;;;;;;;;;;;12.40;99.90;;;;;;5141650;27;19959;-61
2023/03/23 02:05:35;;;;;;;;;;;12.30;99.90;;;;;;5141918;27;20296;-61
2023/03/23 02:08:02;;;;;;;;;;;12.30;99.90;;;;;;5141743;27;19939;-61
2023/03/23 02:10:29;;;;;;;;;;;12.30;99.90;;;;;;5141573;27;19908;-61
2023/03/23 02:12:55;;;;;;;;;;;12.30;99.90;;;;;;5141544;27;19915;-61
2023/03/23 02:15:22;;;;;;;;;;;12.50;99.90;;;;;;5141630;27;20398;-61
2023/03/23 02:17:53;;;;;;;;;;;12.40;99.90;;;;;;5141312;27;20429;-61
2023/03/23 02:20:25;;;;;;;;;;;12.30;99.90;;;;;;5141728;27;19908;-61
2023/03/23 02:22:50;;;;;;;;;;;12.30;99.90;;;;;;5141442;27;19915;-61
2023/03/23 02:25:26;;;;;;;;;;;12.40;99.90;;;;;;5141097;27;19968;-61
2023/03/23 02:28:01;;;;;;;;;;;12.40;99.90;;;;;;5141221;27;19907;-60
2023/03/23 02:30:33;;;;;;;;;;;12.50;99.90;;;;;;5141482;27;19930;-60
2023/03/23 02:33:05;;;;;;;;;;;12.40;99.90;;;;;;5140753;27;20354;-60
2023/03/23 02:35:36;;;;;;;;;;;12.60;99.90;;;;;;5140449;27;20274;-61
2023/03/23 02:38:08;;;;;;;;;;;12.40;99.90;;;;;;5141189;27;19946;-61
2023/03/23 02:40:38;;;;;;;;;;;12.40;99.90;;;;;;5140963;27;20002;-61
2023/03/23 02:43:06;;;;;;;;;;;12.40;99.90;;;;;;5141040;27;19908;-61
2023/03/23 02:45:33;;;;;;;;;;;12.30;99.90;;;;;;5140806;27;19912;-61
2023/03/23 02:48:01;;;;;;;;;;;12.40;99.90;;;;;;5141237;27;19907;-60
2023/03/23 02:50:27;;;;;;;;;;;12.40;99.90;;;;;;5140909;27;19907;-61
2023/03/23 02:52:54;;;;;;;;;;;12.40;99.90;;;;;;5140616;27;19907;-61
2023/03/23 02:55:24;;;;;;;;;;;12.40;99.90;;;;;;5140863;27;19914;-60
2023/03/23 02:57:51;;;;;;;;;;;12.50;99.90;;;;;;5141351;27;19914;-61
2023/03/23 03:00:18;;;;;;;;;;;12.40;99.90;;;;;;5140689;27;19907;-60
2023/03/23 03:02:47;;;;;;;;;;;12.40;99.90;;;;;;5140273;27;19908;-60
2023/03/23 03:05:12;;;;;;;;;;;12.30;99.90;;;;;;5140820;27;20378;-61
2023/03/23 03:07:48;;;;;;;;;;;12.50;99.90;;;;;;5140393;27;19994;-61
2023/03/23 03:10:19;;;;;;;;;;;12.40;99.90;;;;;;5140230;27;19908;-61
2023/03/23 03:12:51;;;;;;;;;;;12.40;99.90;;;;;;5140278;27;19915;-61
2023/03/23 03:15:17;;;;;;;;;;;12.40;99.90;;;;;;5139891;27;19912;-61
2023/03/23 03:17:46;;;;;;;;;;;12.40;99.90;;;;;;5139746;27;19907;-60
2023/03/23 03:20:14;;;;;;;;;;;12.40;99.90;;;;;;5139917;27;20262;-61
2023/03/23 03:22:43;;;;;;;;;;;12.30;99.90;;;;;;5140249;27;19914;-61
2023/03/23 03:25:09;;;;;;;;;;;12.40;99.90;;;;;;5139834;27;19964;-61
2023/03/23 03:27:35;;;;;;;;;;;12.40;99.90;;;;;;5139855;27;19930;-60
2023/03/23 03:30:03;;;;;;;;;;;12.40;99.90;;;;;;5140154;27;19997;-60
2023/03/23 03:32:32;;;;;;;;;;;12.30;99.90;;;;;;5140175;27;20354;-61
2023/03/23 03:35:03;;;;;;;;;;;12.40;99.90;;;;;;5139851;27;19919;-60
2023/03/23 03:37:39;;;;;;;;;;;12.40;99.90;;;;;;5139700;27;19998;-61
2023/03/23 03:40:11;;;;;;;;;;;12.30;99.90;;;;;;5139758;27;19908;-60
2023/03/23 03:42:40;;;;;;;;;;;12.50;99.90;;;;;;5139848;27;19951;-61
2023/03/23 03:45:07;;;;;;;;;;;12.30;99.90;;;;;;5139769;27;20285;-61
2023/03/23 03:47:33;;;;;;;;;;;12.30;99.90;;;;;;5138664;27;19908;-60
2023/03/23 03:49:59;;;;;;;;;;;12.30;99.90;;;;;;5139877;27;20006;-61
2023/03/23 03:52:24;;;;;;;;;;;12.30;99.90;;;;;;5139632;27;19998;-61
2023/03/23 03:54:50;;;;;;;;;;;12.40;99.90;;;;;;5139818;27;19915;-61
2023/03/23 03:57:17;;;;;;;;;;;12.30;99.90;;;;;;5139563;27;19907;-61
2023/03/23 03:59:43;;;;;;;;;;;12.40;99.90;;;;;;5139104;27;20268;-61
2023/03/23 04:02:09;;;;;;;;;;;12.40;99.90;;;;;;5139395;27;19943;-61
2023/03/23 04:04:35;;;;;;;;;;;12.40;99.90;;;;;;5139293;27;19914;-60
2023/03/23 04:07:02;;;;;;;;;;;12.40;99.90;;;;;;5139180;27;19918;-60
2023/03/23 04:09:31;;;;;;;;;;;12.30;99.90;;;;;;5138947;27;20347;-60
2023/03/23 04:11:56;;;;;;;;;;;12.40;99.90;;;;;;5139114;27;20415;-61
2023/03/23 04:14:22;;;;;;;;;;;12.40;99.90;;;;;;5120391;27;19976;-61
2023/03/23 04:16:51;;;;;;;;;;;12.40;99.90;;;;;;5139569;27;19914;-60
2023/03/23 04:19:18;;;;;;;;;;;12.50;99.90;;;;;;5139064;27;19915;-61
2023/03/23 04:21:45;;;;;;;;;;;12.40;99.90;;;;;;5139342;27;19951;-61
2023/03/23 04:24:11;;;;;;;;;;;12.40;99.90;;;;;;5139356;27;19922;-60
2023/03/23 04:26:39;;;;;;;;;;;12.30;99.90;;;;;;5138430;27;19919;-61
2023/03/23 04:29:05;;;;;;;;;;;12.30;99.90;;;;;;5138755;27;19907;-60
2023/03/23 04:31:31;;;;;;;;;;;12.90;99.90;;;;;;5139199;27;19993;-61
2023/03/23 04:33:59;;;;;;;;;;;12.30;99.90;;;;;;5138764;27;20384;-61
2023/03/23 04:36:25;;;;;;;;;;;12.20;99.90;;;;;;5138982;27;19960;-61
2023/03/23 04:38:54;;;;;;;;;;;12.20;99.90;;;;;;5138828;28;19911;-61
2023/03/23 04:41:20;;;;;;;;;;;12.20;99.90;;;;;;5138976;28;19907;-61
2023/03/23 04:43:46;;;;;;;;;;;12.30;99.90;;;;;;5138965;28;19907;-61
2023/03/23 04:46:17;;;;;;;;;;;12.30;99.90;;;;;;5126289;28;19995;-60
2023/03/23 04:48:43;;;;;;;;;;;12.30;99.90;;;;;;5100923;28;19912;-60
2023/03/23 04:51:09;;;;;;;;;;;12.30;99.90;;;;;;5130053;28;20293;-60
2023/03/23 04:53:35;;;;;;;;;;;12.30;99.90;;;;;;5138167;28;19912;-61
2023/03/23 04:56:01;;;;;;;;;;;12.30;99.90;;;;;;5138021;28;19911;-61
2023/03/23 04:58:27;;;;;;;;;;;12.30;99.90;;;;;;5138495;27;20369;-60
2023/03/23 05:00:53;;;;;;;;;;;12.30;99.90;;;;;;5142236;27;20393;-61
2023/03/23 05:03:19;;;;;;;;;;;12.30;99.90;;;;;;5142468;27;19907;-60
2023/03/23 05:05:51;;;;;;;;;;;12.20;99.90;;;;;;5142297;27;19912;-60
2023/03/23 05:08:20;;;;;;;;;;;12.30;99.90;;;;;;5142374;27;19911;-60
2023/03/23 05:10:51;;;;;;;;;;;12.30;99.90;;;;;;5141902;27;19911;-61
2023/03/23 05:13:16;;;;;;;;;;;12.30;99.90;;;;;;5142716;27;19915;-60
2023/03/23 05:15:42;;;;;;;;;;;12.30;99.90;;;;;;5142258;27;19918;-61
2023/03/23 05:18:09;;;;;;;;;;;12.20;99.90;;;;;;5142411;27;19908;-61
2023/03/23 05:20:34;;;;;;;;;;;12.20;99.90;;;;;;5141859;27;19912;-60
2023/03/23 05:23:00;;;;;;;;;;;12.40;99.90;;;;;;5142566;27;20270;-60
2023/03/23 05:25:26;;;;;;;;;;;12.30;99.90;;;;;;5141714;27;19920;-61
2023/03/23 05:27:52;;;;;;;;;;;12.30;99.90;;;;;;5142173;27;19914;-60
2023/03/23 05:30:18;;;;;;;;;;;12.40;99.90;;;;;;5141628;27;20394;-61
2023/03/23 05:32:44;;;;;;;;;;;12.40;99.90;;;;;;5142285;27;19947;-61
2023/03/23 05:35:11;;;;;;;;;;;12.30;99.90;;;;;;5141696;27;20001;-61
2023/03/23 05:37:38;;;;;;;;;;;12.30;99.90;;;;;;5142153;27;19911;-60
2023/03/23 05:40:06;;;;;;;;;;;12.50;99.90;;;;;;5141486;27;19911;-60
2023/03/23 05:42:32;;;;;;;;;;;12.40;99.90;;;;;;5142128;27;19907;-60
2023/03/23 05:44:58;;;;;;;;;;;12.30;99.90;;;;;;5140964;27;19961;-61
2023/03/23 05:47:25;;;;;;;;;;;12.30;99.90;;;;;;5141596;27;19911;-60
2023/03/23 05:49:51;;;;;;;;;;;12.20;99.90;;;;;;5141396;27;20027;-60
2023/03/23 05:52:17;;;;;;;;;;;12.30;99.90;;;;;;5135488;27;19919;-60
2023/03/23 05:54:43;;;;;;;;;;;12.30;99.90;;;;;;5120752;28;20341;-60
2023/03/23 05:57:08;;;;;;;;;;;12.30;99.90;;;;;;5123038;27;19908;-61
2023/03/23 05:59:35;;;;;;;;;;;12.30;99.90;;;;;;5141805;27;19911;-60
2023/03/23 06:02:00;;;;;;;;;;;12.30;99.90;;;;;;5141304;27;19907;-60
2023/03/23 06:04:26;;;;;;;;;;;12.30;99.90;;;;;;5141714;27;19915;-60
2023/03/23 06:06:52;;;;;;;;;;;12.30;99.90;;;;;;5141287;27;19914;-60
2023/03/23 06:09:18;;;;;;;;;;;12.20;99.90;;;;;;5140148;27;20254;-61
2023/03/23 06:11:44;;;;;;;;;;;12.30;99.90;;;;;;5138222;27;19950;-60
2023/03/23 06:14:10;;;;;;;;;;;12.30;99.90;;;;;;5139247;27;19919;-61
2023/03/23 06:16:36;;;;;;;;;;;12.30;99.90;;;;;;5139292;27;19907;-61
2023/03/23 06:19:03;;;;;;;;;;;12.30;99.90;;;;;;5139283;27;19955;-60
2023/03/23 06:21:32;;;;;;;;;;;12.30;99.90;;;;;;5139485;27;19916;-60
2023/03/23 06:23:59;;;;;;;;;;;12.40;99.90;;;;;;5139512;27;20331;-60
2023/03/23 06:26:33;;;;;;;;;;;12.30;99.90;;;;;;5140793;27;20347;-60
2023/03/23 06:28:58;;;;;;;;;;;12.40;99.90;;;;;;5141136;27;19908;-61
2023/03/23 06:31:24;;;;;;;;;;;12.40;99.90;;;;;;5141539;27;19914;-60
2023/03/23 06:33:50;;;;;;;;;;;12.30;99.90;;;;;;5140874;27;19918;-61
2023/03/23 06:36:16;;;;;;;;;;;12.40;99.90;;;;;;5141757;27;19908;-61
2023/03/23 06:38:42;;;;;;;;;;;12.30;99.90;;;;;;5141092;27;19918;-61
2023/03/23 06:41:08;;;;;;;;;;;12.40;99.90;;;;;;5140926;27;19907;-60
2023/03/23 06:43:36;;;;;;;;;;;12.40;99.90;;;;;;5141003;27;19990;-61
2023/03/23 06:46:01;;;;;;;;;;;12.40;99.90;;;;;;5140589;27;19964;-60
2023/03/23 06:48:27;;;;;;;;;;;12.50;99.90;;;;;;5140983;27;19908;-61
2023/03/23 06:50:53;;;;;;;;;;;12.50;99.90;;;;;;5140741;27;20330;-60
2023/03/23 06:53:20;;;;;;;;;;;12.40;99.90;;;;;;5140624;27;19907;-61
2023/03/23 06:55:46;;;;;;;;;;;12.40;99.90;;;;;;5140547;27;20426;-61
2023/03/23 06:58:12;;;;;;;;;;;12.50;99.90;;;;;;5140372;27;19907;-60
2023/03/23 07:00:38;;;;;;;;;;;12.50;99.90;;;;;;5140678;27;19908;-61
2023/03/23 07:03:04;;;;;;;;;;;12.50;99.90;;;;;;5140956;27;19931;-60
2023/03/23 07:05:30;;;;;;;;;;;12.60;99.90;;;;;;5140359;27;20320;-60
2023/03/23 07:07:55;;;;;;;;;;;12.50;99.90;;;;;;5140675;27;19908;-61
2023/03/23 07:10:21;;;;;;;;;;;12.50;99.90;;;;;;5140402;27;19907;-60
2023/03/23 07:12:47;;;;;;;;;;;12.50;99.90;;;;;;5140369;27;19908;-60
2023/03/23 07:15:13;;;;;;;;;;;12.50;99.90;;;;;;5138713;27;19912;-60
2023/03/23 07:17:39;;;;;;;;;;;12.50;99.90;;;;;;5118799;28;19908;-61
2023/03/23 07:20:05;;;;;;;;;;;12.50;99.90;;;;;;5120143;27;19908;-61
2023/03/23 07:22:31;;;;;;;;;;;12.50;99.90;;;;;;5139550;27;19919;-60
2023/03/23 07:24:56;;;;;;;;;;;12.50;99.90;;;;;;5139845;27;19919;-61
2023/03/23 07:27:22;;;;;;;;;;;12.40;99.90;;;;;;5120933;27;19915;-60
2023/03/23 07:29:48;;;;;;;;;;;12.40;99.90;;;;;;5139777;27;19907;-60
2023/03/23 07:32:13;;;;;;;;;;;12.50;99.90;;;;;;5139466;27;19918;-60
2023/03/23 07:34:39;;;;;;;;;;;12.50;99.90;;;;;;5139875;27;19919;-61
2023/03/23 07:37:05;;;;;;;;;;;12.50;99.90;;;;;;5139324;27;19919;-60
2023/03/23 07:39:31;;;;;;;;;;;12.40;99.90;;;;;;5139815;27;19947;-60
2023/03/23 07:41:57;;;;;;;;;;;12.40;99.90;;;;;;5139435;27;19937;-60
2023/03/23 07:44:23;;;;;;;;;;;12.30;99.90;;;;;;5139775;27;20390;-60
2023/03/23 07:46:48;;;;;;;;;;;12.40;99.90;;;;;;5138371;27;19915;-60
2023/03/23 07:49:14;;;;;;;;;;;12.30;99.90;;;;;;5139290;27;19915;-60
2023/03/23 07:51:40;;;;;;;;;;;12.40;99.90;;;;;;5139237;27;19942;-61
2023/03/23 07:54:09;;;;;;;;;;;12.30;99.90;;;;;;5139782;27;19912;-60
2023/03/23 07:56:35;;;;;;;;;;;12.20;99.90;;;;;;5139359;27;19912;-60
2023/03/23 07:59:02;;;;;;;;;;;12.40;99.90;;;;;;5139826;27;20413;-60
2023/03/23 08:01:28;;;;;;;;;;;12.50;99.90;;;;;;5139288;27;19907;-60
2023/03/23 08:03:57;;;;;;;;;;;12.40;99.90;;;;;;5139174;27;20396;-60
2023/03/23 08:06:23;;;;;;;;;;;12.40;99.90;;;;;;5139339;27;19915;-60
2023/03/23 08:08:49;;;;;;;;;;;12.40;99.90;;;;;;5127767;27;19908;-60
2023/03/23 08:11:15;;;;;;;;;;;12.40;99.90;;;;;;5118283;28;19908;-61
2023/03/23 08:13:41;;;;;;;;;;;12.40;99.90;;;;;;5126912;27;20002;-60
2023/03/23 08:16:09;;;;;;;;;;;12.40;99.90;;;;;;5138598;27;19919;-61
2023/03/23 08:18:35;;;;;;;;;;;12.40;99.90;;;;;;5138167;27;19912;-60
2023/03/23 08:21:01;;;;;;;;;;;12.50;99.90;;;;;;5138678;27;19914;-60
2023/03/23 08:23:27;;;;;;;;;;;12.50;99.90;;;;;;5138218;27;19911;-60
2023/03/23 08:25:53;;;;;;;;;;;12.50;99.90;;;;;;5138353;27;19979;-60
2023/03/23 08:28:19;;;;;;;;;;;12.50;99.90;;;;;;5138789;27;19912;-60
2023/03/23 08:30:45;;;;;;;;;;;12.50;99.90;;;;;;5138697;27;19938;-60
2023/03/23 08:33:11;;;;;;;;;;;12.70;99.90;;;;;;5138181;27;19940;-60
2023/03/23 08:35:37;;;;;;;;;;;12.60;99.90;;;;;;5119593;28;20373;-60
2023/03/23 08:38:03;;;;;;;;;;;12.60;99.90;;;;;;5123783;27;19912;-61
2023/03/23 08:40:29;;;;;;;;;;;12.60;99.90;;;;;;5116353;28;19907;-61
2023/03/23 08:42:54;;;;;;;;;;;12.60;99.90;;;;;;5116235;28;19952;-61
2023/03/23 08:45:22;;;;;;;;;;;12.90;99.90;;;;;;5117588;28;19919;-61
2023/03/23 08:47:58;;;;;;;;;;;12.70;99.90;;;;;;5116624;28;19908;-61
2023/03/23 08:50:25;;;;;;;;;;;12.80;99.90;;;;;;5118160;28;19951;-61
2023/03/23 08:52:52;;;;;;;;;;;12.70;99.90;;;;;;5117976;28;20502;-61
2023/03/23 08:55:19;;;;;;;;;;;12.80;99.90;;;;;;5118015;28;19918;-61
2023/03/23 08:57:44;;;;;;;;;;;12.80;99.90;;;;;;5118414;28;19998;-61
2023/03/23 09:00:18;;;;;;;;;;;12.90;99.90;;;;;;5118605;28;19951;-61
2023/03/23 09:02:47;;;;;;;;;;;13.00;99.90;;;;;;5117932;28;19912;-61
2023/03/23 09:05:14;;;;;;;;;;;13.00;99.90;;;;;;5118106;28;19914;-61
2023/03/23 09:07:40;;;;;;;;;;;13.00;99.90;;;;;;5118532;28;19908;-61
2023/03/23 09:10:06;;;;;;;;;;;12.90;99.90;;;;;;5118006;28;19951;-61
2023/03/23 09:12:32;;;;;;;;;;;13.10;99.90;;;;;;5118166;28;19919;-61
2023/03/23 09:14:57;;;;;;;;;;;13.00;99.90;;;;;;5117995;28;20290;-61
2023/03/23 09:17:23;;;;;;;;;;;13.00;99.90;;;;;;5117819;28;19915;-61
2023/03/23 09:19:48;;;;;;;;;;;13.00;99.90;;;;;;5117982;28;20306;-61
2023/03/23 09:22:15;;;;;;;;;;;13.00;99.90;;;;;;5117840;28;19929;-61
2023/03/23 09:24:41;;;;;;;;;;;13.00;99.90;;;;;;5117717;28;19970;-61
2023/03/23 09:27:06;;;;;;;;;;;13.00;99.90;;;;;;5118186;28;20383;-61
2023/03/23 09:29:32;;;;;;;;;;;12.90;99.90;;;;;;5117899;28;19907;-61
2023/03/23 09:31:57;;;;;;;;;;;12.90;99.90;;;;;;5117868;28;19908;-61
2023/03/23 09:34:23;;;;;;;;;;;12.90;99.90;;;;;;5117912;28;19933;-61
2023/03/23 09:36:49;;;;;;;;;;;12.70;99.90;;;;;;5117795;28;19915;-61
2023/03/23 09:39:16;;;;;;;;;;;12.70;99.90;;;;;;5117978;28;19914;-61
2023/03/23 09:41:48;;;;;;;;;;;12.70;99.90;;;;;;5118000;28;19912;-61
2023/03/23 09:44:17;;;;;;;;;;;12.60;99.90;;;;;;5117909;28;19908;-61
2023/03/23 09:46:46;;;;;;;;;;;12.60;99.90;;;;;;5119743;28;19907;-61
2023/03/23 09:49:20;;;;;;;;;;;12.50;99.90;;;;;;5121596;28;19947;-61
2023/03/23 09:51:50;;;;;;;;;;;12.60;99.90;;;;;;5121625;28;19961;-61
2023/03/23 09:54:35;;;;;;;;;;;12.60;99.90;;;;;;5121419;28;19968;-61
2023/03/23 09:57:01;;;;;;;;;;;12.70;99.90;;;;;;5121459;28;19908;-60
2023/03/23 09:59:39;;;;;;;;;;;12.70;99.90;;;;;;5121335;28;19961;-61
2023/03/23 10:02:28;;;;;;;;;;;12.60;99.90;;;;;;5121370;28;19908;-61
2023/03/23 10:04:55;;;;;;;;;;;12.80;99.90;;;;;;5109957;28;20362;-61
2023/03/23 10:07:25;;;;;;;;;;;12.90;99.90;;;;;;5120849;28;19907;-61
2023/03/23 10:09:59;;;;;;;;;;;12.60;99.90;;;;;;5120936;28;20410;-61
2023/03/23 10:12:25;;;;;;;;;;;12.70;99.90;;;;;;5120865;28;20402;-61
2023/03/23 10:14:57;;;;;;;;;;;12.70;99.90;;;;;;5120650;28;19916;-61
2023/03/23 10:17:46;;;;;;;;;;;12.60;99.90;;;;;;5120893;28;19995;-61
2023/03/23 10:20:12;;;;;;;;;;;12.70;99.90;;;;;;5082467;28;19912;-61
2023/03/23 10:22:58;;;;;;;;;;;12.70;99.90;;;;;;5120774;28;19955;-61
2023/03/23 10:25:24;;;;;;;;;;;12.90;99.90;;;;;;5106327;28;19931;-61
2023/03/23 10:27:54;;;;;;;;;;;12.90;99.90;;;;;;5120873;28;20308;-61
2023/03/23 10:30:24;;;;;;;;;;;12.90;99.90;;;;;;5120839;28;19908;-61
2023/03/23 10:32:53;;;;;;;;;;;12.90;99.90;;;;;;5121138;28;19908;-61
2023/03/23 10:35:26;;;;;;;;;;;13.00;99.90;;;;;;5120633;28;19964;-61
2023/03/23 10:37:56;;;;;;;;;;;13.00;99.90;;;;;;5120495;28;19990;-61
2023/03/23 10:40:24;;;;;;;;;;;13.00;99.90;;;;;;5120411;28;19915;-61
2023/03/23 10:42:51;;;;;;;;;;;14.00;99.90;;;;;;5120847;28;19908;-61
2023/03/23 10:45:28;;;;;;;;;;;12.90;99.90;;;;;;5120492;28;19908;-61
2023/03/23 10:47:57;;;;;;;;;;;12.90;99.90;;;;;;5120453;28;20424;-61
2023/03/23 10:50:26;;;;;;;;;;;13.00;99.90;;;;;;5120281;28;20032;-61
2023/03/23 10:52:53;;;;;;;;;;;13.10;99.90;;;;;;5120088;28;20435;-61
2023/03/23 10:55:23;;;;;;;;;;;13.20;99.90;;;;;;5119880;28;20002;-61
2023/03/23 10:58:03;;;;;;;;;;;13.10;99.90;;;;;;5101336;28;19943;-61
2023/03/23 11:00:30;;;;;;;;;;;13.10;99.90;;;;;;5120177;28;19908;-61
2023/03/23 11:03:07;;;;;;;;;;;13.10;99.90;;;;;;5120238;28;20366;-61
2023/03/23 11:05:35;;;;;;;;;;;13.10;99.90;;;;;;5120017;28;19951;-61
2023/03/23 11:08:01;;;;;;;;;;;12.90;99.90;;;;;;5119606;28;19919;-61
2023/03/23 11:10:33;;;;;;;;;;;12.80;99.90;;;;;;5119818;28;19926;-61
2023/03/23 11:13:00;;;;;;;;;;;12.80;99.90;;;;;;5120155;28;19915;-61
2023/03/23 11:15:26;;;;;;;;;;;12.80;99.90;;;;;;5120048;28;20381;-61
2023/03/23 11:17:56;;;;;;;;;;;12.80;99.90;;;;;;5119645;28;19918;-61
2023/03/23 11:20:22;;;;;;;;;;;12.70;99.90;;;;;;5119691;28;19908;-61
2023/03/23 11:22:48;;;;;;;;;;;12.70;99.90;;;;;;5119539;28;20283;-61
2023/03/23 11:25:14;;;;;;;;;;;12.90;99.90;;;;;;5119220;28;19920;-61
2023/03/23 11:27:40;;;;;;;;;;;12.90;99.90;;;;;;5119397;28;19967;-61
2023/03/23 11:30:09;;;;;;;;;;;12.80;99.90;;;;;;5119325;28;19931;-61
2023/03/23 11:32:36;;;;;;;;;;;12.90;99.90;;;;;;5119215;28;19908;-61
2023/03/23 11:35:04;;;;;;;;;;;12.90;99.90;;;;;;5118708;28;20394;-61
2023/03/23 11:37:31;;;;;;;;;;;12.90;99.90;;;;;;5100741;28;19908;-61
2023/03/23 11:39:57;;;;;;;;;;;12.90;99.90;;;;;;5118873;28;19908;-61
2023/03/23 11:42:35;;;;;;;;;;;12.90;99.90;;;;;;5119006;28;19908;-61
2023/03/23 11:45:19;;;;;;;;;;;12.90;99.90;;;;;;5119258;28;19908;-61
2023/03/23 11:47:57;;;;;;;;;;;12.90;99.90;;;;;;5119213;28;19908;-61
2023/03/23 11:50:22;;;;;;;;;;;12.90;99.90;;;;;;5119093;28;19930;-61
2023/03/23 11:52:54;;;;;;;;;;;12.90;99.90;;;;;;5118820;28;19912;-61
2023/03/23 11:55:26;;;;;;;;;;;12.90;99.90;;;;;;5118991;28;19918;-61
2023/03/23 11:57:53;;;;;;;;;;;13.00;99.90;;;;;;5118801;28;19911;-61
2023/03/23 12:00:20;;;;;;;;;;;13.00;99.90;;;;;;5118962;28;20008;-61
2023/03/23 12:03:04;;;;;;;;;;;12.90;99.90;;;;;;5118922;28;19915;-61
2023/03/23 12:05:35;;;;;;;;;;;12.90;99.90;;;;;;5119142;28;20418;-61
2023/03/23 12:08:21;;;;;;;;;;;13.00;99.90;;;;;;5118462;28;19914;-61
2023/03/23 12:11:20;;;;;;;;;;;12.80;99.90;;;;;;5118338;28;19961;-61
2023/03/23 12:13:55;;;;;;;;;;;12.90;99.90;;;;;;5073104;28;20374;-61
2023/03/23 12:16:21;;;;;;;;;;;12.80;99.90;;;;;;5118426;28;19914;-61
2023/03/23 12:18:47;;;;;;;;;;;12.70;99.90;;;;;;5118181;28;19908;-61
2023/03/23 12:21:31;;;;;;;;;;;12.80;99.90;;;;;;5117347;28;19907;-61
2023/03/23 12:23:57;;;;;;;;;;;12.70;99.90;;;;;;5119013;27;20438;-61
2023/03/23 12:26:26;;;;;;;;;;;12.80;99.90;;;;;;5130105;27;19919;-61
2023/03/23 12:29:02;;;;;;;;;;;12.80;99.90;;;;;;5138451;27;19922;-60
2023/03/23 12:31:47;;;;;;;;;;;12.60;99.90;;;;;;5138745;27;19915;-60
2023/03/23 12:34:19;;;;;;;;;;;12.70;99.90;;;;;;5137709;27;20411;-60
2023/03/23 12:37:02;;;;;;;;;;;12.60;99.90;;;;;;5120206;27;19908;-60
2023/03/23 12:39:43;;;;;;;;;;;12.60;99.90;;;;;;5139135;27;20002;-60
2023/03/23 12:42:15;;;;;;;;;;;12.60;99.90;;;;;;5138285;28;19911;-60
2023/03/23 12:44:44;;;;;;;;;;;12.60;99.90;;;;;;5138285;28;19911;-60
2023/03/23 12:47:17;;;;;;;;;;;12.50;99.90;;;;;;5138966;28;19907;-60
2023/03/23 12:49:46;;;;;;;;;;;12.50;99.90;;;;;;5118001;28;19916;-60
2023/03/23 12:52:15;;;;;;;;;;;12.50;99.90;;;;;;5117779;28;19923;-60
2023/03/23 12:54:48;;;;;;;;;;;12.50;99.90;;;;;;5118080;28;19912;-60
2023/03/23 12:57:30;;;;;;;;;;;12.20;99.90;;;;;;5117710;28;19918;-60
2023/03/23 13:00:02;;;;;;;;;;;12.20;99.90;;;;;;5123867;28;19947;-60
2023/03/23 13:02:37;;;;;;;;;;;12.00;99.90;;;;;;5138614;28;19907;-61
2023/03/23 13:05:02;;;;;;;;;;;12.10;99.90;;;;;;5138366;28;19942;-61
2023/03/23 13:07:32;;;;;;;;;;;12.30;99.90;;;;;;5138210;28;19907;-60
2023/03/23 13:10:19;;;;;;;;;;;12.30;99.90;;;;;;5138013;28;19911;-60
2023/03/23 13:12:46;;;;;;;;;;;12.10;99.90;;;;;;5137886;28;20244;-60
2023/03/23 13:15:22;;;;;;;;;;;12.20;99.90;;;;;;5138272;28;20371;-60
2023/03/23 13:18:07;;;;;;;;;;;12.30;99.90;;;;;;5137839;28;20375;-60
2023/03/23 13:20:48;;;;;;;;;;;12.30;99.90;;;;;;5140004;27;19915;-60
2023/03/23 13:23:17;;;;;;;;;;;12.30;99.90;;;;;;5142377;27;19908;-60
2023/03/23 13:25:51;;;;;;;;;;;12.30;99.90;;;;;;5141700;27;19968;-60
2023/03/23 13:28:20;;;;;;;;;;;12.30;99.90;;;;;;5141720;27;20293;-60
2023/03/23 13:30:53;;;;;;;;;;;12.30;99.90;;;;;;5141886;27;19919;-59
2023/03/23 13:33:20;;;;;;;;;;;12.40;99.90;;;;;;5141646;27;20321;-60
2023/03/23 13:35:45;;;;;;;;;;;12.30;99.90;;;;;;5142317;27;19943;-60
2023/03/23 13:38:19;;;;;;;;;;;12.30;99.90;;;;;;5142216;27;19912;-60
2023/03/23 13:40:45;;;;;;;;;;;12.30;99.90;;;;;;5141749;27;20010;-60
2023/03/23 13:43:11;;;;;;;;;;;12.30;99.90;;;;;;5142082;27;19946;-60
2023/03/23 13:45:47;;;;;;;;;;;12.30;99.90;;;;;;5142231;27;20362;-60
2023/03/23 13:48:12;;;;;;;;;;;12.40;99.90;;;;;;5141981;27;19914;-60
2023/03/23 13:50:49;;;;;;;;;;;12.30;99.90;;;;;;5141951;27;19911;-60
2023/03/23 13:53:21;;;;;;;;;;;12.30;99.90;;;;;;5141902;27;19908;-60
2023/03/23 13:55:49;;;;;;;;;;;12.30;99.90;;;;;;5142067;27;19949;-60
2023/03/23 13:58:25;;;;;;;;;;;12.30;99.90;;;;;;5141723;27;19908;-60
2023/03/23 14:01:01;;;;;;;;;;;12.40;99.90;;;;;;5141785;27;19907;-60
2023/03/23 14:03:33;;;;;;;;;;;12.30;99.90;;;;;;5141799;27;19931;-60
2023/03/23 14:05:59;;;;;;;;;;;12.30;99.90;;;;;;5141431;27;20286;-59
2023/03/23 14:08:27;;;;;;;;;;;12.30;99.90;;;;;;5141270;27;19907;-59
2023/03/23 14:11:02;;;;;;;;;;;12.30;99.90;;;;;;5141566;27;19907;-60
2023/03/23 14:13:48;;;;;;;;;;;12.20;99.90;;;;;;5141072;27;19907;-60
2023/03/23 14:16:20;;;;;;;;;;;12.30;99.90;;;;;;5126939;27;19946;-59
2023/03/23 14:18:51;;;;;;;;;;;12.10;99.90;;;;;;5141446;27;19907;-60
2023/03/23 14:21:22;;;;;;;;;;;12.10;99.90;;;;;;5122772;27;19959;-60
2023/03/23 14:23:47;;;;;;;;;;;12.00;99.90;;;;;;5141532;27;20274;-60
2023/03/23 14:26:17;;;;;;;;;;;12.00;99.90;;;;;;5141023;27;19964;-60